sensor_id;sensor_type;location;lat;lon;timestamp;P1;durP1;ratioP1;P2;durP2;ratioP2
5762;SDS011;2906;53.282;9.508;2023-02-15T00:00:49;107.38;;;27.05;;
5762;SDS011;2906;53.282;9.508;2023-02-15T00:01:51;82.28;;;26.17;;
5762;SDS011;2906;53.282;9.508;2023-02-15T00:02:53;99.50;;;25.95;;
5762;SDS011;2906;53.282;9.508;2023-02-15T00:03:54;183.10;;;27.38;;
5762;SDS011;2906;53.282;9.508;2023-02-15T00:04:57;120.22;;;26.85;;
5762;SDS011;2906;53.282;9.508;2023-02-15T00:05:58;106.07;;;27.13;;
5762;SDS011;2906;53.282;9.508;2023-02-15T00:07:01;102.90;;;24.80;;
5762;SDS011;2906;53.282;9.508;2023-02-15T00:08:02;118.72;;;25.63;;
5762;SDS011;2906;53.282;9.508;2023-02-15T00:09:06;107.68;;;25.25;;
5762;SDS011;2906;53.282;9.508;2023-02-15T00:10:09;180.75;;;27.30;;
5762;SDS011;2906;53.282;9.508;2023-02-15T00:11:13;138.85;;;26.25;;
5762;SDS011;2906;53.282;9.508;2023-02-15T00:12:15;86.70;;;23.70;;
5762;SDS011;2906;53.282;9.508;2023-02-15T00:13:18;109.15;;;25.38;;
5762;SDS011;2906;53.282;9.508;2023-02-15T00:14:20;123.68;;;24.83;;
5762;SDS011;2906;53.282;9.508;2023-02-15T00:15:23;137.90;;;26.55;;
5762;SDS011;2906;53.282;9.508;2023-02-15T00:16:26;133.82;;;26.38;;
5762;SDS011;2906;53.282;9.508;2023-02-15T00:17:28;89.28;;;25.33;;
5762;SDS011;2906;53.282;9.508;2023-02-15T00:18:30;109.80;;;26.25;;
5762;SDS011;2906;53.282;9.508;2023-02-15T00:19:32;82.20;;;23.77;;
5762;SDS011;2906;53.282;9.508;2023-02-15T00:20:34;115.55;;;25.27;;
5762;SDS011;2906;53.282;9.508;2023-02-15T00:21:37;101.47;;;24.70;;
5762;SDS011;2906;53.282;9.508;2023-02-15T00:22:38;84.88;;;25.30;;
5762;SDS011;2906;53.282;9.508;2023-02-15T00:23:41;143.82;;;26.60;;
5762;SDS011;2906;53.282;9.508;2023-02-15T00:24:44;147.98;;;26.38;;
5762;SDS011;2906;53.282;9.508;2023-02-15T00:25:46;135.55;;;26.52;;
5762;SDS011;2906;53.282;9.508;2023-02-15T00:26:47;138.57;;;26.95;;
5762;SDS011;2906;53.282;9.508;2023-02-15T00:27:50;91.70;;;25.48;;
5762;SDS011;2906;53.282;9.508;2023-02-15T00:28:51;125.90;;;26.30;;
5762;SDS011;2906;53.282;9.508;2023-02-15T00:29:54;137.77;;;25.80;;
5762;SDS011;2906;53.282;9.508;2023-02-15T00:31:01;99.40;;;26.88;;
5762;SDS011;2906;53.282;9.508;2023-02-15T00:32:03;105.40;;;26.02;;
5762;SDS011;2906;53.282;9.508;2023-02-15T00:33:06;73.78;;;25.58;;
5762;SDS011;2906;53.282;9.508;2023-02-15T00:34:10;113.13;;;26.10;;
5762;SDS011;2906;53.282;9.508;2023-02-15T00:35:13;116.80;;;25.58;;
5762;SDS011;2906;53.282;9.508;2023-02-15T00:36:14;115.45;;;25.60;;
5762;SDS011;2906;53.282;9.508;2023-02-15T00:37:16;132.20;;;26.15;;
5762;SDS011;2906;53.282;9.508;2023-02-15T00:38:19;77.15;;;25.17;;
5762;SDS011;2906;53.282;9.508;2023-02-15T00:39:20;105.90;;;25.95;;
5762;SDS011;2906;53.282;9.508;2023-02-15T00:40:25;92.82;;;26.17;;
5762;SDS011;2906;53.282;9.508;2023-02-15T00:41:26;106.40;;;26.27;;
5762;SDS011;2906;53.282;9.508;2023-02-15T00:42:29;79.40;;;26.33;;
5762;SDS011;2906;53.282;9.508;2023-02-15T00:43:30;118.03;;;28.73;;
5762;SDS011;2906;53.282;9.508;2023-02-15T00:44:33;109.43;;;26.52;;
5762;SDS011;2906;53.282;9.508;2023-02-15T00:45:34;95.78;;;27.08;;
5762;SDS011;2906;53.282;9.508;2023-02-15T00:46:36;91.90;;;24.80;;
5762;SDS011;2906;53.282;9.508;2023-02-15T00:47:39;120.80;;;26.27;;
5762;SDS011;2906;53.282;9.508;2023-02-15T00:48:40;111.20;;;24.95;;
5762;SDS011;2906;53.282;9.508;2023-02-15T00:49:42;108.88;;;24.92;;
5762;SDS011;2906;53.282;9.508;2023-02-15T00:50:44;110.50;;;26.38;;
5762;SDS011;2906;53.282;9.508;2023-02-15T00:51:46;90.03;;;26.83;;
5762;SDS011;2906;53.282;9.508;2023-02-15T00:52:48;135.70;;;25.95;;
5762;SDS011;2906;53.282;9.508;2023-02-15T00:53:50;88.10;;;25.90;;
5762;SDS011;2906;53.282;9.508;2023-02-15T00:54:51;97.07;;;25.92;;
5762;SDS011;2906;53.282;9.508;2023-02-15T00:55:55;161.88;;;27.90;;
5762;SDS011;2906;53.282;9.508;2023-02-15T00:56:56;120.72;;;25.55;;
5762;SDS011;2906;53.282;9.508;2023-02-15T00:57:59;92.25;;;26.85;;
5762;SDS011;2906;53.282;9.508;2023-02-15T00:59:00;119.97;;;27.73;;
5762;SDS011;2906;53.282;9.508;2023-02-15T01:00:03;110.85;;;25.38;;
5762;SDS011;2906;53.282;9.508;2023-02-15T01:01:05;98.93;;;23.85;;
5762;SDS011;2906;53.282;9.508;2023-02-15T01:02:08;190.85;;;26.63;;
5762;SDS011;2906;53.282;9.508;2023-02-15T01:03:09;107.95;;;25.48;;
5762;SDS011;2906;53.282;9.508;2023-02-15T01:04:12;95.20;;;24.17;;
5762;SDS011;2906;53.282;9.508;2023-02-15T01:05:13;104.18;;;25.13;;
5762;SDS011;2906;53.282;9.508;2023-02-15T01:06:16;76.97;;;24.35;;
5762;SDS011;2906;53.282;9.508;2023-02-15T01:07:17;123.13;;;26.92;;
5762;SDS011;2906;53.282;9.508;2023-02-15T01:08:20;122.88;;;25.45;;
5762;SDS011;2906;53.282;9.508;2023-02-15T01:09:21;68.18;;;22.98;;
5762;SDS011;2906;53.282;9.508;2023-02-15T01:10:24;121.68;;;25.90;;
5762;SDS011;2906;53.282;9.508;2023-02-15T01:11:27;67.95;;;24.77;;
5762;SDS011;2906;53.282;9.508;2023-02-15T01:12:30;120.13;;;24.92;;
5762;SDS011;2906;53.282;9.508;2023-02-15T01:13:31;73.82;;;27.05;;
5762;SDS011;2906;53.282;9.508;2023-02-15T01:14:33;139.05;;;25.52;;
5762;SDS011;2906;53.282;9.508;2023-02-15T01:15:35;119.95;;;24.55;;
5762;SDS011;2906;53.282;9.508;2023-02-15T01:16:37;112.97;;;25.13;;
5762;SDS011;2906;53.282;9.508;2023-02-15T01:17:39;92.88;;;24.25;;
5762;SDS011;2906;53.282;9.508;2023-02-15T01:18:42;118.13;;;25.70;;
5762;SDS011;2906;53.282;9.508;2023-02-15T01:19:43;98.28;;;24.90;;
5762;SDS011;2906;53.282;9.508;2023-02-15T01:20:46;162.55;;;25.45;;
5762;SDS011;2906;53.282;9.508;2023-02-15T01:21:47;123.80;;;24.35;;
5762;SDS011;2906;53.282;9.508;2023-02-15T01:22:50;92.57;;;24.25;;
5762;SDS011;2906;53.282;9.508;2023-02-15T01:23:51;144.15;;;25.48;;
5762;SDS011;2906;53.282;9.508;2023-02-15T01:24:54;133.23;;;25.35;;
5762;SDS011;2906;53.282;9.508;2023-02-15T01:25:55;88.72;;;23.23;;
5762;SDS011;2906;53.282;9.508;2023-02-15T01:26:59;168.93;;;29.60;;
5762;SDS011;2906;53.282;9.508;2023-02-15T01:28:00;122.47;;;25.75;;
5762;SDS011;2906;53.282;9.508;2023-02-15T01:29:03;187.93;;;24.55;;
5762;SDS011;2906;53.282;9.508;2023-02-15T01:30:04;127.35;;;25.77;;
5762;SDS011;2906;53.282;9.508;2023-02-15T01:31:07;203.73;;;25.63;;
5762;SDS011;2906;53.282;9.508;2023-02-15T01:32:09;112.38;;;25.05;;
5762;SDS011;2906;53.282;9.508;2023-02-15T01:33:11;215.25;;;27.85;;
5762;SDS011;2906;53.282;9.508;2023-02-15T01:34:17;111.53;;;24.75;;
5762;SDS011;2906;53.282;9.508;2023-02-15T01:35:20;119.97;;;24.23;;
5762;SDS011;2906;53.282;9.508;2023-02-15T01:36:21;119.75;;;23.23;;
5762;SDS011;2906;53.282;9.508;2023-02-15T01:37:23;69.18;;;23.80;;
5762;SDS011;2906;53.282;9.508;2023-02-15T01:38:25;114.97;;;24.27;;
5762;SDS011;2906;53.282;9.508;2023-02-15T01:39:27;155.00;;;25.33;;
5762;SDS011;2906;53.282;9.508;2023-02-15T01:40:28;102.53;;;22.40;;
5762;SDS011;2906;53.282;9.508;2023-02-15T01:41:31;157.98;;;26.67;;
5762;SDS011;2906;53.282;9.508;2023-02-15T01:42:34;108.57;;;25.35;;
5762;SDS011;2906;53.282;9.508;2023-02-15T01:43:39;97.63;;;23.65;;
5762;SDS011;2906;53.282;9.508;2023-02-15T01:44:45;74.90;;;24.23;;
5762;SDS011;2906;53.282;9.508;2023-02-15T01:45:48;88.82;;;23.98;;
5762;SDS011;2906;53.282;9.508;2023-02-15T01:46:51;101.95;;;22.40;;
5762;SDS011;2906;53.282;9.508;2023-02-15T01:47:56;106.88;;;25.40;;
5762;SDS011;2906;53.282;9.508;2023-02-15T01:49:01;108.63;;;23.48;;
5762;SDS011;2906;53.282;9.508;2023-02-15T01:50:07;97.88;;;24.80;;
5762;SDS011;2906;53.282;9.508;2023-02-15T01:51:10;87.07;;;23.15;;
5762;SDS011;2906;53.282;9.508;2023-02-15T01:52:14;101.72;;;23.23;;
5762;SDS011;2906;53.282;9.508;2023-02-15T01:53:17;90.75;;;24.95;;
5762;SDS011;2906;53.282;9.508;2023-02-15T01:54:23;81.97;;;23.52;;
5762;SDS011;2906;53.282;9.508;2023-02-15T01:55:27;79.55;;;23.63;;
5762;SDS011;2906;53.282;9.508;2023-02-15T01:56:32;94.25;;;24.00;;
5762;SDS011;2906;53.282;9.508;2023-02-15T01:58:39;98.25;;;23.00;;
5762;SDS011;2906;53.282;9.508;2023-02-15T01:59:41;151.95;;;23.83;;
5762;SDS011;2906;53.282;9.508;2023-02-15T02:00:45;134.00;;;23.55;;
5762;SDS011;2906;53.282;9.508;2023-02-15T02:01:46;107.30;;;24.10;;
5762;SDS011;2906;53.282;9.508;2023-02-15T02:02:49;104.10;;;23.70;;
5762;SDS011;2906;53.282;9.508;2023-02-15T02:03:55;117.25;;;24.42;;
5762;SDS011;2906;53.282;9.508;2023-02-15T02:04:59;150.90;;;23.08;;
5762;SDS011;2906;53.282;9.508;2023-02-15T02:06:03;159.20;;;24.55;;
5762;SDS011;2906;53.282;9.508;2023-02-15T02:07:06;69.20;;;22.38;;
5762;SDS011;2906;53.282;9.508;2023-02-15T02:08:07;80.53;;;22.50;;
5762;SDS011;2906;53.282;9.508;2023-02-15T02:09:10;104.85;;;23.40;;
5762;SDS011;2906;53.282;9.508;2023-02-15T02:10:13;110.65;;;23.25;;
5762;SDS011;2906;53.282;9.508;2023-02-15T02:11:16;169.32;;;23.20;;
5762;SDS011;2906;53.282;9.508;2023-02-15T02:12:17;110.20;;;23.85;;
5762;SDS011;2906;53.282;9.508;2023-02-15T02:13:20;134.10;;;22.35;;
5762;SDS011;2906;53.282;9.508;2023-02-15T02:14:23;66.57;;;23.45;;
5762;SDS011;2906;53.282;9.508;2023-02-15T02:15:28;127.25;;;23.58;;
5762;SDS011;2906;53.282;9.508;2023-02-15T02:16:34;112.95;;;21.85;;
5762;SDS011;2906;53.282;9.508;2023-02-15T02:17:42;150.95;;;22.92;;
5762;SDS011;2906;53.282;9.508;2023-02-15T02:18:49;149.07;;;22.40;;
5762;SDS011;2906;53.282;9.508;2023-02-15T02:20:05;177.77;;;23.05;;
5762;SDS011;2906;53.282;9.508;2023-02-15T02:21:19;93.53;;;22.85;;
5762;SDS011;2906;53.282;9.508;2023-02-15T02:22:35;138.48;;;22.00;;
5762;SDS011;2906;53.282;9.508;2023-02-15T02:25:01;154.65;;;24.15;;
5762;SDS011;2906;53.282;9.508;2023-02-15T02:27:26;87.50;;;21.85;;
5762;SDS011;2906;53.282;9.508;2023-02-15T02:28:37;106.57;;;22.05;;
5762;SDS011;2906;53.282;9.508;2023-02-15T02:31:05;121.30;;;20.35;;
5762;SDS011;2906;53.282;9.508;2023-02-15T02:32:20;135.43;;;20.52;;
5762;SDS011;2906;53.282;9.508;2023-02-15T02:33:30;80.43;;;20.40;;
5762;SDS011;2906;53.282;9.508;2023-02-15T02:34:35;59.03;;;21.55;;
5762;SDS011;2906;53.282;9.508;2023-02-15T02:35:42;76.50;;;21.65;;
5762;SDS011;2906;53.282;9.508;2023-02-15T02:36:48;104.88;;;22.17;;
5762;SDS011;2906;53.282;9.508;2023-02-15T02:37:54;147.80;;;21.33;;
5762;SDS011;2906;53.282;9.508;2023-02-15T02:39:03;107.45;;;20.83;;
5762;SDS011;2906;53.282;9.508;2023-02-15T02:40:10;78.75;;;19.92;;
5762;SDS011;2906;53.282;9.508;2023-02-15T02:41:16;140.43;;;20.35;;
5762;SDS011;2906;53.282;9.508;2023-02-15T02:42:21;89.05;;;19.30;;
5762;SDS011;2906;53.282;9.508;2023-02-15T02:43:25;155.82;;;20.52;;
5762;SDS011;2906;53.282;9.508;2023-02-15T02:44:31;120.07;;;20.42;;
5762;SDS011;2906;53.282;9.508;2023-02-15T02:45:35;125.20;;;20.55;;
5762;SDS011;2906;53.282;9.508;2023-02-15T02:46:46;114.97;;;18.40;;
5762;SDS011;2906;53.282;9.508;2023-02-15T02:47:48;119.82;;;20.88;;
5762;SDS011;2906;53.282;9.508;2023-02-15T02:48:53;68.30;;;19.13;;
5762;SDS011;2906;53.282;9.508;2023-02-15T02:49:58;87.95;;;20.25;;
5762;SDS011;2906;53.282;9.508;2023-02-15T02:51:01;135.95;;;21.08;;
5762;SDS011;2906;53.282;9.508;2023-02-15T02:52:03;128.85;;;22.50;;
5762;SDS011;2906;53.282;9.508;2023-02-15T02:53:05;142.75;;;19.83;;
5762;SDS011;2906;53.282;9.508;2023-02-15T02:54:07;145.85;;;20.60;;
5762;SDS011;2906;53.282;9.508;2023-02-15T02:55:14;103.07;;;20.02;;
5762;SDS011;2906;53.282;9.508;2023-02-15T02:56:19;132.13;;;20.33;;
5762;SDS011;2906;53.282;9.508;2023-02-15T02:57:22;77.03;;;22.05;;
5762;SDS011;2906;53.282;9.508;2023-02-15T02:58:26;112.50;;;19.45;;
5762;SDS011;2906;53.282;9.508;2023-02-15T02:59:30;99.80;;;20.85;;
5762;SDS011;2906;53.282;9.508;2023-02-15T03:00:34;150.52;;;21.15;;
5762;SDS011;2906;53.282;9.508;2023-02-15T03:01:37;106.55;;;21.80;;
5762;SDS011;2906;53.282;9.508;2023-02-15T03:02:40;203.32;;;21.20;;
5762;SDS011;2906;53.282;9.508;2023-02-15T03:03:42;106.43;;;19.83;;
5762;SDS011;2906;53.282;9.508;2023-02-15T03:04:49;147.18;;;20.55;;
5762;SDS011;2906;53.282;9.508;2023-02-15T03:05:58;94.63;;;18.08;;
5762;SDS011;2906;53.282;9.508;2023-02-15T03:07:02;99.50;;;18.58;;
5762;SDS011;2906;53.282;9.508;2023-02-15T03:08:05;83.18;;;22.10;;
5762;SDS011;2906;53.282;9.508;2023-02-15T03:09:10;124.05;;;21.25;;
5762;SDS011;2906;53.282;9.508;2023-02-15T03:10:14;163.43;;;21.88;;
5762;SDS011;2906;53.282;9.508;2023-02-15T03:11:17;115.35;;;20.08;;
5762;SDS011;2906;53.282;9.508;2023-02-15T03:12:20;107.88;;;20.67;;
5762;SDS011;2906;53.282;9.508;2023-02-15T03:13:23;177.63;;;20.30;;
5762;SDS011;2906;53.282;9.508;2023-02-15T03:14:24;154.82;;;21.35;;
5762;SDS011;2906;53.282;9.508;2023-02-15T03:15:29;143.48;;;20.15;;
5762;SDS011;2906;53.282;9.508;2023-02-15T03:16:50;113.13;;;21.50;;
5762;SDS011;2906;53.282;9.508;2023-02-15T03:17:54;116.72;;;20.05;;
5762;SDS011;2906;53.282;9.508;2023-02-15T03:18:58;109.22;;;21.15;;
5762;SDS011;2906;53.282;9.508;2023-02-15T03:20:06;83.45;;;19.15;;
5762;SDS011;2906;53.282;9.508;2023-02-15T03:21:09;150.93;;;21.52;;
5762;SDS011;2906;53.282;9.508;2023-02-15T03:22:23;70.25;;;20.00;;
5762;SDS011;2906;53.282;9.508;2023-02-15T03:23:25;118.38;;;20.80;;
5762;SDS011;2906;53.282;9.508;2023-02-15T03:24:31;81.10;;;19.52;;
5762;SDS011;2906;53.282;9.508;2023-02-15T03:25:33;124.90;;;23.90;;
5762;SDS011;2906;53.282;9.508;2023-02-15T03:26:36;92.35;;;19.33;;
5762;SDS011;2906;53.282;9.508;2023-02-15T03:27:38;101.60;;;20.98;;
5762;SDS011;2906;53.282;9.508;2023-02-15T03:28:42;137.90;;;21.98;;
5762;SDS011;2906;53.282;9.508;2023-02-15T03:29:45;77.63;;;18.77;;
5762;SDS011;2906;53.282;9.508;2023-02-15T03:30:49;120.97;;;21.90;;
5762;SDS011;2906;53.282;9.508;2023-02-15T03:31:53;109.68;;;19.15;;
5762;SDS011;2906;53.282;9.508;2023-02-15T03:32:57;128.75;;;20.33;;
5762;SDS011;2906;53.282;9.508;2023-02-15T03:34:00;117.18;;;20.02;;
5762;SDS011;2906;53.282;9.508;2023-02-15T03:35:07;163.45;;;22.70;;
5762;SDS011;2906;53.282;9.508;2023-02-15T03:36:11;109.78;;;21.38;;
5762;SDS011;2906;53.282;9.508;2023-02-15T03:37:20;135.63;;;22.65;;
5762;SDS011;2906;53.282;9.508;2023-02-15T03:38:26;84.82;;;20.08;;
5762;SDS011;2906;53.282;9.508;2023-02-15T03:39:30;104.28;;;21.83;;
5762;SDS011;2906;53.282;9.508;2023-02-15T03:40:34;94.65;;;18.60;;
5762;SDS011;2906;53.282;9.508;2023-02-15T03:41:54;79.43;;;19.00;;
5762;SDS011;2906;53.282;9.508;2023-02-15T03:42:59;90.63;;;20.23;;
5762;SDS011;2906;53.282;9.508;2023-02-15T03:44:03;50.63;;;19.50;;
5762;SDS011;2906;53.282;9.508;2023-02-15T03:45:08;110.72;;;18.90;;
5762;SDS011;2906;53.282;9.508;2023-02-15T03:46:12;79.75;;;17.60;;
5762;SDS011;2906;53.282;9.508;2023-02-15T03:47:15;159.90;;;20.33;;
5762;SDS011;2906;53.282;9.508;2023-02-15T03:48:18;53.65;;;18.88;;
5762;SDS011;2906;53.282;9.508;2023-02-15T03:49:21;128.63;;;20.52;;
5762;SDS011;2906;53.282;9.508;2023-02-15T03:50:27;44.95;;;18.75;;
5762;SDS011;2906;53.282;9.508;2023-02-15T03:51:45;78.22;;;20.73;;
5762;SDS011;2906;53.282;9.508;2023-02-15T03:52:49;68.90;;;17.80;;
5762;SDS011;2906;53.282;9.508;2023-02-15T03:53:50;58.28;;;17.73;;
5762;SDS011;2906;53.282;9.508;2023-02-15T03:54:54;73.30;;;20.17;;
5762;SDS011;2906;53.282;9.508;2023-02-15T03:55:57;84.78;;;20.52;;
5762;SDS011;2906;53.282;9.508;2023-02-15T03:56:59;81.90;;;19.10;;
5762;SDS011;2906;53.282;9.508;2023-02-15T03:58:16;80.22;;;19.33;;
5762;SDS011;2906;53.282;9.508;2023-02-15T03:59:32;65.47;;;18.58;;
5762;SDS011;2906;53.282;9.508;2023-02-15T04:00:49;181.85;;;19.83;;
5762;SDS011;2906;53.282;9.508;2023-02-15T04:02:14;218.55;;;19.90;;
5762;SDS011;2906;53.282;9.508;2023-02-15T04:03:22;142.10;;;19.67;;
5762;SDS011;2906;53.282;9.508;2023-02-15T04:04:25;117.75;;;18.90;;
5762;SDS011;2906;53.282;9.508;2023-02-15T04:05:30;85.57;;;19.85;;
5762;SDS011;2906;53.282;9.508;2023-02-15T04:06:31;155.05;;;20.98;;
5762;SDS011;2906;53.282;9.508;2023-02-15T04:07:33;121.32;;;20.92;;
5762;SDS011;2906;53.282;9.508;2023-02-15T04:08:35;146.05;;;20.23;;
5762;SDS011;2906;53.282;9.508;2023-02-15T04:09:51;316.02;;;23.27;;
5762;SDS011;2906;53.282;9.508;2023-02-15T04:11:07;134.70;;;21.42;;
5762;SDS011;2906;53.282;9.508;2023-02-15T04:12:09;104.03;;;19.73;;
5762;SDS011;2906;53.282;9.508;2023-02-15T04:13:11;79.95;;;19.80;;
5762;SDS011;2906;53.282;9.508;2023-02-15T04:14:13;163.70;;;21.00;;
5762;SDS011;2906;53.282;9.508;2023-02-15T04:15:29;111.55;;;19.85;;
5762;SDS011;2906;53.282;9.508;2023-02-15T04:16:45;97.13;;;18.30;;
5762;SDS011;2906;53.282;9.508;2023-02-15T04:17:47;135.82;;;19.45;;
5762;SDS011;2906;53.282;9.508;2023-02-15T04:18:49;171.82;;;21.20;;
5762;SDS011;2906;53.282;9.508;2023-02-15T04:20:05;181.50;;;20.65;;
5762;SDS011;2906;53.282;9.508;2023-02-15T04:21:24;162.57;;;21.30;;
5762;SDS011;2906;53.282;9.508;2023-02-15T04:22:40;136.82;;;19.27;;
5762;SDS011;2906;53.282;9.508;2023-02-15T04:23:56;146.52;;;19.13;;
5762;SDS011;2906;53.282;9.508;2023-02-15T04:25:12;80.75;;;18.92;;
5762;SDS011;2906;53.282;9.508;2023-02-15T04:26:15;66.20;;;18.85;;
5762;SDS011;2906;53.282;9.508;2023-02-15T04:27:16;70.32;;;19.60;;
5762;SDS011;2906;53.282;9.508;2023-02-15T04:28:19;115.20;;;19.88;;
5762;SDS011;2906;53.282;9.508;2023-02-15T04:29:20;175.10;;;19.85;;
5762;SDS011;2906;53.282;9.508;2023-02-15T04:30:23;190.15;;;19.95;;
5762;SDS011;2906;53.282;9.508;2023-02-15T04:31:25;198.88;;;20.23;;
5762;SDS011;2906;53.282;9.508;2023-02-15T04:32:28;165.05;;;21.08;;
5762;SDS011;2906;53.282;9.508;2023-02-15T04:33:29;132.38;;;18.33;;
5762;SDS011;2906;53.282;9.508;2023-02-15T04:34:31;92.65;;;18.15;;
5762;SDS011;2906;53.282;9.508;2023-02-15T04:35:33;87.10;;;19.80;;
5762;SDS011;2906;53.282;9.508;2023-02-15T04:36:37;144.15;;;18.50;;
5762;SDS011;2906;53.282;9.508;2023-02-15T04:37:38;111.18;;;21.33;;
5762;SDS011;2906;53.282;9.508;2023-02-15T04:38:40;128.45;;;18.80;;
5762;SDS011;2906;53.282;9.508;2023-02-15T04:39:42;153.35;;;18.33;;
5762;SDS011;2906;53.282;9.508;2023-02-15T04:40:44;84.75;;;17.40;;
5762;SDS011;2906;53.282;9.508;2023-02-15T04:41:45;135.23;;;18.98;;
5762;SDS011;2906;53.282;9.508;2023-02-15T04:42:48;102.47;;;19.63;;
5762;SDS011;2906;53.282;9.508;2023-02-15T04:43:49;96.13;;;17.52;;
5762;SDS011;2906;53.282;9.508;2023-02-15T04:44:52;137.15;;;18.70;;
5762;SDS011;2906;53.282;9.508;2023-02-15T04:45:53;149.43;;;20.52;;
5762;SDS011;2906;53.282;9.508;2023-02-15T04:46:55;91.60;;;17.20;;
5762;SDS011;2906;53.282;9.508;2023-02-15T04:47:57;102.15;;;18.67;;
5762;SDS011;2906;53.282;9.508;2023-02-15T04:48:59;78.95;;;17.50;;
5762;SDS011;2906;53.282;9.508;2023-02-15T04:50:00;80.20;;;17.70;;
5762;SDS011;2906;53.282;9.508;2023-02-15T04:51:04;148.70;;;19.27;;
5762;SDS011;2906;53.282;9.508;2023-02-15T04:52:08;149.65;;;19.77;;
5762;SDS011;2906;53.282;9.508;2023-02-15T04:53:11;110.35;;;16.83;;
5762;SDS011;2906;53.282;9.508;2023-02-15T04:54:12;82.93;;;17.80;;
5762;SDS011;2906;53.282;9.508;2023-02-15T04:55:15;84.63;;;16.73;;
5762;SDS011;2906;53.282;9.508;2023-02-15T04:56:16;59.55;;;16.35;;
5762;SDS011;2906;53.282;9.508;2023-02-15T04:57:19;65.57;;;17.52;;
5762;SDS011;2906;53.282;9.508;2023-02-15T04:58:20;148.65;;;19.05;;
5762;SDS011;2906;53.282;9.508;2023-02-15T04:59:22;97.55;;;18.23;;
5762;SDS011;2906;53.282;9.508;2023-02-15T05:00:24;109.72;;;18.60;;
5762;SDS011;2906;53.282;9.508;2023-02-15T05:01:27;99.00;;;17.30;;
5762;SDS011;2906;53.282;9.508;2023-02-15T05:02:28;76.50;;;16.40;;
5762;SDS011;2906;53.282;9.508;2023-02-15T05:03:31;95.85;;;17.27;;
5762;SDS011;2906;53.282;9.508;2023-02-15T05:04:32;76.47;;;15.90;;
5762;SDS011;2906;53.282;9.508;2023-02-15T05:05:35;97.82;;;18.15;;
5762;SDS011;2906;53.282;9.508;2023-02-15T05:06:36;75.13;;;17.20;;
5762;SDS011;2906;53.282;9.508;2023-02-15T05:07:40;118.50;;;19.52;;
5762;SDS011;2906;53.282;9.508;2023-02-15T05:08:43;123.82;;;18.05;;
5762;SDS011;2906;53.282;9.508;2023-02-15T05:09:44;129.63;;;18.73;;
5762;SDS011;2906;53.282;9.508;2023-02-15T05:10:47;47.58;;;17.20;;
5762;SDS011;2906;53.282;9.508;2023-02-15T05:11:49;100.75;;;16.75;;
5762;SDS011;2906;53.282;9.508;2023-02-15T05:12:52;64.95;;;15.63;;
5762;SDS011;2906;53.282;9.508;2023-02-15T05:13:53;93.47;;;16.67;;
5762;SDS011;2906;53.282;9.508;2023-02-15T05:14:56;136.77;;;16.30;;
5762;SDS011;2906;53.282;9.508;2023-02-15T05:15:57;70.25;;;17.10;;
5762;SDS011;2906;53.282;9.508;2023-02-15T05:17:00;88.60;;;16.92;;
5762;SDS011;2906;53.282;9.508;2023-02-15T05:18:03;66.05;;;14.82;;
5762;SDS011;2906;53.282;9.508;2023-02-15T05:19:06;67.25;;;18.70;;
5762;SDS011;2906;53.282;9.508;2023-02-15T05:20:08;47.00;;;16.08;;
5762;SDS011;2906;53.282;9.508;2023-02-15T05:21:10;96.20;;;16.95;;
5762;SDS011;2906;53.282;9.508;2023-02-15T05:22:13;70.45;;;15.05;;
5762;SDS011;2906;53.282;9.508;2023-02-15T05:23:17;75.70;;;15.82;;
5762;SDS011;2906;53.282;9.508;2023-02-15T05:24:18;88.80;;;15.90;;
5762;SDS011;2906;53.282;9.508;2023-02-15T05:25:35;46.95;;;13.77;;
5762;SDS011;2906;53.282;9.508;2023-02-15T05:26:51;72.93;;;15.23;;
5762;SDS011;2906;53.282;9.508;2023-02-15T05:28:07;45.47;;;15.25;;
5762;SDS011;2906;53.282;9.508;2023-02-15T05:29:23;65.72;;;15.00;;
5762;SDS011;2906;53.282;9.508;2023-02-15T05:30:26;53.58;;;15.10;;
5762;SDS011;2906;53.282;9.508;2023-02-15T05:31:27;116.10;;;16.42;;
5762;SDS011;2906;53.282;9.508;2023-02-15T05:32:31;106.10;;;14.65;;
5762;SDS011;2906;53.282;9.508;2023-02-15T05:33:32;68.82;;;16.83;;
5762;SDS011;2906;53.282;9.508;2023-02-15T05:34:34;104.78;;;16.20;;
5762;SDS011;2906;53.282;9.508;2023-02-15T05:35:36;98.35;;;17.67;;
5762;SDS011;2906;53.282;9.508;2023-02-15T05:36:38;65.03;;;15.65;;
5762;SDS011;2906;53.282;9.508;2023-02-15T05:37:39;65.13;;;15.02;;
5762;SDS011;2906;53.282;9.508;2023-02-15T05:38:43;81.65;;;14.82;;
5762;SDS011;2906;53.282;9.508;2023-02-15T05:39:45;77.72;;;15.68;;
5762;SDS011;2906;53.282;9.508;2023-02-15T05:40:47;67.40;;;16.40;;
5762;SDS011;2906;53.282;9.508;2023-02-15T05:41:48;74.30;;;17.08;;
5762;SDS011;2906;53.282;9.508;2023-02-15T05:42:51;100.82;;;15.73;;
5762;SDS011;2906;53.282;9.508;2023-02-15T05:43:54;90.15;;;14.45;;
5762;SDS011;2906;53.282;9.508;2023-02-15T05:44:56;79.75;;;15.73;;
5762;SDS011;2906;53.282;9.508;2023-02-15T05:45:58;54.22;;;14.82;;
5762;SDS011;2906;53.282;9.508;2023-02-15T05:47:00;62.22;;;16.05;;
5762;SDS011;2906;53.282;9.508;2023-02-15T05:48:03;72.35;;;15.40;;
5762;SDS011;2906;53.282;9.508;2023-02-15T05:49:05;68.80;;;14.00;;
5762;SDS011;2906;53.282;9.508;2023-02-15T05:50:07;88.05;;;17.13;;
5762;SDS011;2906;53.282;9.508;2023-02-15T05:51:12;80.20;;;14.73;;
5762;SDS011;2906;53.282;9.508;2023-02-15T05:52:15;85.63;;;16.00;;
5762;SDS011;2906;53.282;9.508;2023-02-15T05:53:18;109.45;;;15.65;;
5762;SDS011;2906;53.282;9.508;2023-02-15T05:54:21;52.17;;;15.25;;
5762;SDS011;2906;53.282;9.508;2023-02-15T05:55:24;57.50;;;15.80;;
5762;SDS011;2906;53.282;9.508;2023-02-15T05:56:25;61.40;;;15.43;;
5762;SDS011;2906;53.282;9.508;2023-02-15T05:57:27;81.93;;;16.10;;
5762;SDS011;2906;53.282;9.508;2023-02-15T05:58:31;126.30;;;16.65;;
5762;SDS011;2906;53.282;9.508;2023-02-15T05:59:32;60.55;;;15.23;;
5762;SDS011;2906;53.282;9.508;2023-02-15T06:00:35;52.85;;;15.00;;
5762;SDS011;2906;53.282;9.508;2023-02-15T06:01:36;59.58;;;15.90;;
5762;SDS011;2906;53.282;9.508;2023-02-15T06:02:38;92.25;;;17.15;;
5762;SDS011;2906;53.282;9.508;2023-02-15T06:03:40;70.10;;;15.65;;
5762;SDS011;2906;53.282;9.508;2023-02-15T06:04:43;56.30;;;15.90;;
5762;SDS011;2906;53.282;9.508;2023-02-15T06:05:44;40.05;;;16.25;;
5762;SDS011;2906;53.282;9.508;2023-02-15T06:06:47;62.25;;;15.77;;
5762;SDS011;2906;53.282;9.508;2023-02-15T06:07:48;43.33;;;16.08;;
5762;SDS011;2906;53.282;9.508;2023-02-15T06:08:52;77.93;;;16.42;;
5762;SDS011;2906;53.282;9.508;2023-02-15T06:09:54;93.93;;;16.45;;
5762;SDS011;2906;53.282;9.508;2023-02-15T06:10:57;98.57;;;16.60;;
5762;SDS011;2906;53.282;9.508;2023-02-15T06:11:58;129.48;;;16.13;;
5762;SDS011;2906;53.282;9.508;2023-02-15T06:13:00;56.20;;;15.77;;
5762;SDS011;2906;53.282;9.508;2023-02-15T06:14:01;56.67;;;14.63;;
5762;SDS011;2906;53.282;9.508;2023-02-15T06:15:04;56.05;;;14.65;;
5762;SDS011;2906;53.282;9.508;2023-02-15T06:16:06;72.85;;;16.35;;
5762;SDS011;2906;53.282;9.508;2023-02-15T06:17:08;91.32;;;16.40;;
5762;SDS011;2906;53.282;9.508;2023-02-15T06:18:09;75.47;;;15.13;;
5762;SDS011;2906;53.282;9.508;2023-02-15T06:19:12;52.47;;;16.52;;
5762;SDS011;2906;53.282;9.508;2023-02-15T06:20:13;58.22;;;15.88;;
5762;SDS011;2906;53.282;9.508;2023-02-15T06:21:16;48.95;;;16.23;;
5762;SDS011;2906;53.282;9.508;2023-02-15T06:22:17;62.65;;;15.93;;
5762;SDS011;2906;53.282;9.508;2023-02-15T06:23:20;46.90;;;16.10;;
5762;SDS011;2906;53.282;9.508;2023-02-15T06:24:21;61.72;;;15.50;;
5762;SDS011;2906;53.282;9.508;2023-02-15T06:25:26;53.95;;;15.75;;
5762;SDS011;2906;53.282;9.508;2023-02-15T06:26:32;59.72;;;15.68;;
5762;SDS011;2906;53.282;9.508;2023-02-15T06:27:33;36.50;;;14.73;;